Time;durP1;ratioP1;P1;durP2;ratioP2;P2;SDS_P1;SDS_P2;PMS_P1;PMS_P2;Temp;Humidity;BMP_temperature;BMP_pressure;BME280_temperature;BME280_humidity;BME280_pressure;Samples;Min_cycle;Max_cycle;Signal;HPM_P1;HPM_P2
2021/05/21 00:02:28;;;;;;;3.28;1.20;;;17.70;61.10;;;;;;10539979;28;20474;-59
2021/05/21 00:07:29;;;;;;;2.55;1.30;;;17.70;61.10;;;;;;10550840;28;20067;-60
2021/05/21 00:12:29;;;;;;;4.47;1.70;;;17.70;61.10;;;;;;10559184;28;20063;-60
2021/05/21 00:17:30;;;;;;;2.63;1.65;;;17.70;61.10;;;;;;10551714;28;20031;-60
2021/05/21 00:22:31;;;;;;;2.65;1.40;;;17.70;61.00;;;;;;10539276;28;20028;-60
2021/05/21 00:27:32;;;;;;;3.22;1.50;;;17.70;61.00;;;;;;10522485;28;20070;-61
2021/05/21 00:32:32;;;;;;;3.75;1.50;;;17.70;61.00;;;;;;10522156;28;20028;-60
2021/05/21 00:37:33;;;;;;;2.22;1.17;;;17.70;61.00;;;;;;10538421;28;20547;-60
2021/05/21 00:42:34;;;;;;;3.25;1.58;;;17.70;61.00;;;;;;10563976;28;20038;-60
2021/05/21 00:47:35;;;;;;;2.00;1.23;;;17.70;61.00;;;;;;10543546;28;20110;-60
2021/05/21 00:52:40;;;;;;;3.05;1.30;;;17.70;61.00;;;;;;10574345;28;20036;-60
2021/05/21 00:57:43;;;;;;;3.42;1.77;;;17.70;61.10;;;;;;10547919;28;20429;-60
2021/05/21 01:02:43;;;;;;;1.77;1.23;;;17.70;61.10;;;;;;10560412;28;20039;-61
2021/05/21 01:07:44;;;;;;;3.03;1.27;;;17.70;61.10;;;;;;10556260;28;20028;-61
2021/05/21 01:12:45;;;;;;;2.28;1.08;;;17.70;61.10;;;;;;10555736;28;20059;-61
2021/05/21 01:17:46;;;;;;;2.63;0.98;;;17.70;61.10;;;;;;10554258;28;20061;-61
2021/05/21 01:22:46;;;;;;;3.90;1.85;;;17.70;61.10;;;;;;10548817;28;20028;-60
2021/05/21 01:27:47;;;;;;;3.05;1.33;;;17.70;61.10;;;;;;10584116;28;20027;-60
2021/05/21 01:32:48;;;;;;;1.70;0.93;;;17.70;61.60;;;;;;10527871;28;20365;-60
2021/05/21 01:37:51;;;;;;;2.30;1.27;;;17.70;61.00;;;;;;10545455;28;20439;-60
2021/05/21 01:42:52;;;;;;;2.30;1.20;;;17.70;61.00;;;;;;10527914;28;20169;-61
2021/05/21 01:47:53;;;;;;;2.72;1.15;;;17.70;61.00;;;;;;10547295;28;20093;-61
2021/05/21 01:52:54;;;;;;;1.63;0.88;;;17.70;61.60;;;;;;10549790;28;20032;-60
2021/05/21 01:57:54;;;;;;;2.08;1.33;;;17.70;61.00;;;;;;10510487;28;20032;-60
2021/05/21 02:02:55;;;;;;;4.32;1.25;;;17.80;61.10;;;;;;10544855;28;20052;-61
2021/05/21 02:07:56;;;;;;;1.67;1.00;;;17.80;61.20;;;;;;10548874;28;20062;-60
2021/05/21 02:12:57;;;;;;;3.47;1.45;;;17.70;61.20;;;;;;10546119;28;20119;-60
2021/05/21 02:17:57;;;;;;;2.92;1.50;;;17.70;61.20;;;;;;10538157;28;20027;-60
2021/05/21 02:22:58;;;;;;;1.67;1.00;;;17.80;61.40;;;;;;10579855;28;20047;-60
2021/05/21 02:27:59;;;;;;;2.05;1.20;;;17.70;61.40;;;;;;10547172;28;20036;-61
2021/05/21 02:33:00;;;;;;;3.00;1.42;;;17.70;61.50;;;;;;10543214;28;20066;-60
2021/05/21 02:38:00;;;;;;;1.92;1.10;;;17.70;67.60;;;;;;10526993;28;20122;-61
2021/05/21 02:43:01;;;;;;;4.35;1.35;;;17.80;67.30;;;;;;10525645;28;20110;-61
2021/05/21 02:48:02;;;;;;;4.00;1.92;;;17.70;67.10;;;;;;10533331;28;20380;-61
2021/05/21 02:53:03;;;;;;;4.28;2.20;;;17.70;66.90;;;;;;10554606;28;20031;-61
2021/05/21 02:58:04;;;;;;;1.65;0.95;;;17.70;66.90;;;;;;10524795;28;20523;-61
2021/05/21 03:03:04;;;;;;;3.55;1.27;;;17.70;66.80;;;;;;10542409;28;20064;-60
2021/05/21 03:08:05;;;;;;;4.35;2.30;;;17.70;66.80;;;;;;10547859;28;20024;-61
2021/05/21 03:13:06;;;;;;;2.33;1.02;;;17.70;66.50;;;;;;10560266;28;20081;-61
2021/05/21 03:18:17;;;;;;;4.78;1.30;;;17.70;66.30;;;;;;10545195;28;20057;-61
2021/05/21 03:23:19;;;;;;;5.75;2.08;;;17.70;66.20;;;;;;10543675;28;20051;-61
2021/05/21 03:28:23;;;;;;;3.63;1.85;;;17.70;66.10;;;;;;10539911;28;20036;-61
2021/05/21 03:33:23;;;;;;;3.00;2.00;;;17.70;65.90;;;;;;10556596;28;20078;-61
2021/05/21 03:38:24;;;;;;;4.32;1.48;;;17.70;65.20;;;;;;10541128;28;20055;-61
2021/05/21 03:43:25;;;;;;;5.65;1.55;;;17.70;65.00;;;;;;10538925;28;20031;-61
2021/05/21 03:48:26;;;;;;;3.47;1.45;;;17.70;65.20;;;;;;10535791;28;20043;-61
2021/05/21 03:53:26;;;;;;;6.85;1.48;;;17.60;65.50;;;;;;10545579;28;20043;-62
2021/05/21 03:58:27;;;;;;;3.78;1.67;;;17.60;65.30;;;;;;10563128;28;20491;-61
2021/05/21 04:03:28;;;;;;;3.05;1.33;;;17.60;64.60;;;;;;10550075;28;20448;-61
2021/05/21 04:08:30;;;;;;;4.80;1.60;;;17.70;64.60;;;;;;10513499;28;20020;-61
2021/05/21 04:13:31;;;;;;;7.22;1.70;;;17.70;64.50;;;;;;10542447;28;20028;-60
2021/05/21 04:18:31;;;;;;;3.35;1.52;;;17.60;64.30;;;;;;10542975;28;20028;-60
2021/05/21 04:23:32;;;;;;;4.90;1.60;;;17.70;64.30;;;;;;10555682;28;20101;-60
2021/05/21 04:28:33;;;;;;;2.92;1.27;;;17.70;64.30;;;;;;10538826;28;20028;-60
2021/05/21 04:33:34;;;;;;;8.10;1.67;;;17.70;64.20;;;;;;10522554;28;20448;-61
2021/05/21 04:38:35;;;;;;;3.75;1.40;;;17.70;64.20;;;;;;10551488;28;20114;-61
2021/05/21 04:43:36;;;;;;;7.63;2.67;;;17.70;64.10;;;;;;10538768;28;20484;-61
2021/05/21 04:48:37;;;;;;;2.72;1.60;;;17.70;64.10;;;;;;10552022;28;20063;-60
2021/05/21 04:53:41;;;;;;;3.95;1.20;;;17.70;64.10;;;;;;10570058;28;20746;-60
2021/05/21 04:58:41;;;;;;;4.25;1.85;;;17.70;64.10;;;;;;10559699;28;20024;-60
2021/05/21 05:03:42;;;;;;;10.45;2.30;;;17.70;64.50;;;;;;10561850;28;20343;-58
2021/05/21 05:08:43;;;;;;;7.28;2.20;;;17.70;65.30;;;;;;10562642;28;20059;-58
2021/05/21 05:13:43;;;;;;;8.55;2.17;;;17.80;66.20;;;;;;10563446;28;20425;-59
2021/05/21 05:18:44;;;;;;;7.03;2.58;;;17.80;66.10;;;;;;10559679;28;20026;-54
2021/05/21 05:23:45;;;;;;;6.07;2.17;;;17.90;66.80;;;;;;10540202;28;20116;-60
2021/05/21 05:28:47;;;;;;;11.93;3.05;;;17.90;67.00;;;;;;10550474;28;20028;-57
2021/05/21 05:33:48;;;;;;;8.02;2.80;;;17.90;66.80;;;;;;10537818;28;20115;-57
2021/05/21 05:38:49;;;;;;;12.82;3.17;;;17.90;67.00;;;;;;10564444;28;20437;-60
2021/05/21 05:43:49;;;;;;;14.82;3.05;;;17.90;66.70;;;;;;10558853;28;20067;-58
2021/05/21 05:48:51;;;;;;;16.02;3.45;;;17.90;66.60;;;;;;10557902;28;20079;-57
2021/05/21 05:53:51;;;;;;;19.45;3.67;;;17.90;66.60;;;;;;10567831;28;20359;-53
2021/05/21 05:58:52;;;;;;;18.42;3.53;;;18.00;67.00;;;;;;10587024;28;20083;-56
2021/05/21 06:03:53;;;;;;;18.55;4.32;;;17.90;67.20;;;;;;10567214;28;20055;-59
2021/05/21 06:08:53;;;;;;;21.90;3.47;;;18.00;67.20;;;;;;10574420;28;20126;-60
2021/05/21 06:13:55;;;;;;;22.15;4.28;;;18.00;66.60;;;;;;10553163;28;20333;-55
2021/05/21 06:18:56;;;;;;;11.27;3.63;;;18.00;66.70;;;;;;10541621;28;20017;-58
2021/05/21 06:23:57;;;;;;;16.35;3.55;;;18.00;66.50;;;;;;10521356;28;20088;-57
2021/05/21 06:28:58;;;;;;;16.05;3.40;;;18.00;66.40;;;;;;10539589;28;20050;-57
2021/05/21 06:33:59;;;;;;;15.40;3.40;;;18.00;66.30;;;;;;10541193;28;20368;-56
2021/05/21 06:38:59;;;;;;;10.65;2.33;;;18.00;66.10;;;;;;10557033;28;20081;-56
2021/05/21 06:44:00;;;;;;;9.93;2.70;;;18.00;65.80;;;;;;10542627;28;20063;-60
2021/05/21 06:49:01;;;;;;;13.50;2.90;;;18.10;65.60;;;;;;10540646;28;20082;-58
2021/05/21 06:54:02;;;;;;;15.88;3.33;;;18.10;65.00;;;;;;10567179;28;20043;-59
2021/05/21 06:59:04;;;;;;;11.50;3.25;;;18.10;64.50;;;;;;10523704;28;20472;-59
2021/05/21 07:04:05;;;;;;;14.48;3.33;;;18.20;64.20;;;;;;10523723;28;20032;-58
2021/05/21 07:09:05;;;;;;;7.35;2.28;;;18.20;64.00;;;;;;10553660;28;20027;-58
2021/05/21 07:14:08;;;;;;;7.63;2.78;;;18.20;63.90;;;;;;10580563;28;20542;-59
2021/05/21 07:19:13;;;;;;;12.60;3.47;;;18.20;64.10;;;;;;10534025;28;20401;-59
2021/05/21 07:24:14;;;;;;;14.68;3.45;;;18.10;64.20;;;;;;10541118;28;20032;-59
2021/05/21 07:29:14;;;;;;;10.55;2.83;;;18.20;64.20;;;;;;10541192;28;20149;-61
2021/05/21 07:34:15;;;;;;;11.80;3.08;;;18.20;64.20;;;;;;10540918;28;20111;-60
2021/05/21 07:39:16;;;;;;;17.35;3.92;;;18.10;64.30;;;;;;10505950;28;20059;-58
2021/05/21 07:44:17;;;;;;;10.55;3.05;;;18.20;64.40;;;;;;10540746;28;20027;-58
2021/05/21 07:49:22;;;;;;;11.07;2.72;;;18.10;64.20;;;;;;10517421;28;20107;-61
2021/05/21 07:54:22;;;;;;;11.73;2.83;;;18.10;64.60;;;;;;10521317;28;20032;-58
2021/05/21 07:59:23;;;;;;;14.25;3.05;;;18.10;64.80;;;;;;10497929;28;20467;-57
2021/05/21 08:04:24;;;;;;;14.23;2.88;;;18.10;65.00;;;;;;10497434;28;20059;-59
2021/05/21 08:09:25;;;;;;;13.52;2.85;;;18.10;64.70;;;;;;10497704;28;20052;-59
2021/05/21 08:14:26;;;;;;;8.15;2.50;;;18.10;64.60;;;;;;10517235;28;20024;-60
2021/05/21 08:19:26;;;;;;;9.77;3.05;;;18.00;64.90;;;;;;10498091;28;20086;-62
2021/05/21 08:24:27;;;;;;;30.08;4.03;;;18.00;64.60;;;;;;10518851;28;20068;-60
2021/05/21 08:29:28;;;;;;;14.52;3.25;;;18.10;66.10;;;;;;10495539;28;20024;-65
2021/05/21 08:34:29;;;;;;;17.70;3.45;;;18.10;65.00;;;;;;10496754;28;20427;-57
2021/05/21 08:39:30;;;;;;;9.55;2.30;;;18.00;65.10;;;;;;10515910;28;20077;-57
2021/05/21 08:44:32;;;;;;;10.27;2.85;;;18.10;65.50;;;;;;10530348;28;20026;-57
2021/05/21 08:49:32;;;;;;;12.43;2.70;;;18.10;65.80;;;;;;10524091;28;20129;-61
2021/05/21 08:54:36;;;;;;;11.60;2.63;;;18.10;66.10;;;;;;10558452;28;20098;-63
2021/05/21 08:59:37;;;;;;;10.55;2.30;;;18.10;66.10;;;;;;10557051;28;20035;-61
2021/05/21 09:04:57;;;;;;;11.73;2.60;;;18.10;66.10;;;;;;10538341;28;20027;-63
2021/05/21 09:10:18;;;;;;;13.57;2.33;;;18.10;66.00;;;;;;10536889;28;20036;-59
2021/05/21 09:15:26;;;;;;;10.52;2.75;;;18.10;65.60;;;;;;10565186;28;20064;-62
2021/05/21 09:20:30;;;;;;;16.73;3.40;;;18.10;65.80;;;;;;10536983;28;20415;-59
2021/05/21 09:25:39;;;;;;;12.27;2.60;;;18.10;65.40;;;;;;10537242;28;20024;-61
2021/05/21 09:31:23;;;;;;;8.45;2.15;;;18.00;64.00;;;;;;10547164;28;20047;-62
2021/05/21 09:36:31;;;;;;;6.28;1.85;;;18.00;63.80;;;;;;10552161;28;20044;-63
2021/05/21 09:41:57;;;;;;;11.57;2.90;;;18.00;64.70;;;;;;10572704;28;20024;-62
2021/05/21 09:46:58;;;;;;;6.28;2.30;;;17.90;63.80;;;;;;10544399;28;20110;-63
2021/05/21 09:52:04;;;;;;;3.67;2.08;;;18.00;63.70;;;;;;10560589;28;20589;-62
2021/05/21 09:57:09;;;;;;;9.35;2.63;;;18.00;63.80;;;;;;10551502;28;20073;-63
2021/05/21 10:02:29;;;;;;;5.72;1.85;;;17.90;63.80;;;;;;10544513;28;20051;-63
2021/05/21 10:07:29;;;;;;;9.75;2.00;;;17.90;63.70;;;;;;10526096;28;20425;-62
2021/05/21 10:12:31;;;;;;;8.07;1.92;;;18.00;64.50;;;;;;10532300;28;20084;-62
2021/05/21 10:17:33;;;;;;;6.00;2.70;;;17.90;64.20;;;;;;10555771;28;20502;-62
2021/05/21 10:22:40;;;;;;;5.25;1.98;;;17.90;63.80;;;;;;10525824;28;20035;-63
2021/05/21 10:27:46;;;;;;;7.53;1.95;;;17.90;63.70;;;;;;10543337;28;20028;-63
2021/05/21 10:32:46;;;;;;;8.30;2.05;;;17.90;63.70;;;;;;10525603;28;20031;-62
2021/05/21 10:37:48;;;;;;;6.68;1.90;;;17.90;63.40;;;;;;10524669;28;20060;-63
2021/05/21 10:42:51;;;;;;;6.53;2.08;;;17.90;63.60;;;;;;10546854;28;20115;-58
2021/05/21 10:48:07;;;;;;;6.32;2.30;;;17.90;63.80;;;;;;10566245;28;20043;-63
2021/05/21 10:53:09;;;;;;;7.80;2.53;;;18.00;65.20;;;;;;10546053;28;20471;-60
2021/05/21 10:58:19;;;;;;;11.98;2.38;;;18.00;65.70;;;;;;10541923;28;20028;-61
2021/05/21 11:03:19;;;;;;;9.48;2.80;;;18.00;65.30;;;;;;10523815;28;20077;-60
2021/05/21 11:08:20;;;;;;;12.77;2.65;;;18.10;65.70;;;;;;10512997;28;20076;-60
2021/05/21 11:13:25;;;;;;;10.63;3.40;;;18.10;65.50;;;;;;10576975;28;20027;-60
2021/05/21 11:18:30;;;;;;;23.38;3.15;;;18.10;65.70;;;;;;10564279;28;20019;-61
2021/05/21 11:23:53;;;;;;;13.93;2.70;;;18.20;65.80;;;;;;10582989;28;20073;-62
2021/05/21 11:28:59;;;;;;;16.08;3.50;;;18.20;65.40;;;;;;10570505;28;20024;-63
2021/05/21 11:34:03;;;;;;;12.55;2.97;;;18.10;65.80;;;;;;10582406;28;20115;-63
2021/05/21 11:39:05;;;;;;;19.20;3.22;;;18.20;66.20;;;;;;10564238;28;20028;-61
2021/05/21 11:44:11;;;;;;;10.48;2.60;;;18.20;66.30;;;;;;10581912;28;20104;-58
2021/05/21 11:49:19;;;;;;;12.40;2.58;;;18.20;65.60;;;;;;10562855;28;20071;-60
2021/05/21 11:54:21;;;;;;;10.27;2.30;;;18.20;66.00;;;;;;10559251;28;20024;-61
2021/05/21 11:59:23;;;;;;;10.15;3.00;;;18.10;65.50;;;;;;10539768;28;20447;-60
2021/05/21 12:04:31;;;;;;;8.55;2.40;;;18.10;65.60;;;;;;10537408;28;20047;-55
2021/05/21 12:09:32;;;;;;;7.53;2.42;;;18.10;66.00;;;;;;10539426;28;20128;-55
2021/05/21 12:14:35;;;;;;;7.75;2.78;;;18.20;65.60;;;;;;10569799;28;20513;-57
2021/05/21 12:19:41;;;;;;;10.52;2.00;;;18.20;65.70;;;;;;10529692;28;20107;-56
2021/05/21 12:24:43;;;;;;;11.27;3.20;;;18.20;65.70;;;;;;10538284;28;20028;-50
2021/05/21 12:29:44;;;;;;;8.20;2.50;;;18.20;66.20;;;;;;10520887;28;20028;-53
2021/05/21 12:34:49;;;;;;;16.88;2.80;;;18.30;66.40;;;;;;10520006;28;20111;-53
2021/05/21 12:39:51;;;;;;;12.50;3.55;;;18.30;66.40;;;;;;10543910;28;20023;-54
2021/05/21 12:44:53;;;;;;;15.85;3.28;;;18.30;66.10;;;;;;10545308;28;20024;-57
2021/05/21 12:49:55;;;;;;;14.02;2.83;;;18.30;67.30;;;;;;10563747;28;20026;-57
2021/05/21 12:54:55;;;;;;;14.48;3.63;;;18.20;67.00;;;;;;10521529;28;20114;-56
2021/05/21 13:00:01;;;;;;;15.75;3.88;;;18.30;67.30;;;;;;10537702;28;20111;-57
2021/05/21 13:05:13;;;;;;;12.80;3.30;;;18.30;67.10;;;;;;10549939;28;20092;-57
2021/05/21 13:10:14;;;;;;;11.73;3.30;;;18.30;67.10;;;;;;10584913;28;20022;-56
2021/05/21 13:15:28;;;;;;;11.80;3.42;;;18.30;67.10;;;;;;10571938;28;20020;-58
2021/05/21 13:20:32;;;;;;;17.08;5.40;;;18.30;67.20;;;;;;10573288;28;20036;-57
2021/05/21 13:25:32;;;;;;;13.85;4.00;;;18.30;67.10;;;;;;10587677;28;20031;-57
2021/05/21 13:30:34;;;;;;;18.90;4.45;;;18.30;67.30;;;;;;10569652;28;20031;-56
2021/05/21 13:35:35;;;;;;;14.18;3.13;;;18.40;67.60;;;;;;10565493;28;20034;-58
2021/05/21 13:40:36;;;;;;;21.13;3.35;;;18.40;67.30;;;;;;10545412;28;20050;-58
2021/05/21 13:45:37;;;;;;;17.27;3.33;;;18.40;66.60;;;;;;10535741;28;20141;-58
2021/05/21 13:50:39;;;;;;;18.38;3.75;;;18.40;66.60;;;;;;10567230;28;20051;-56
2021/05/21 13:55:41;;;;;;;16.27;3.28;;;18.40;67.70;;;;;;10543647;28;20024;-57
2021/05/21 14:00:41;;;;;;;19.05;4.18;;;18.40;66.70;;;;;;10544786;28;20024;-58
2021/05/21 14:05:42;;;;;;;19.30;4.82;;;18.40;67.00;;;;;;10558025;28;20104;-53
2021/05/21 14:10:43;;;;;;;24.73;4.85;;;18.40;67.00;;;;;;10553449;28;20027;-58
2021/05/21 14:15:43;;;;;;;37.10;5.20;;;18.40;67.20;;;;;;10566747;28;20501;-58
2021/05/21 14:20:44;;;;;;;39.60;6.95;;;18.40;67.10;;;;;;10547666;28;20115;-54
2021/05/21 14:25:46;;;;;;;26.10;6.20;;;18.40;66.70;;;;;;10527329;28;20039;-58
2021/05/21 14:30:48;;;;;;;24.50;5.95;;;18.40;66.80;;;;;;10525718;28;20057;-59
2021/05/21 14:35:49;;;;;;;20.88;5.40;;;18.40;66.70;;;;;;10538883;28;20032;-58
2021/05/21 14:40:50;;;;;;;28.48;5.47;;;18.50;66.80;;;;;;10584479;28;20043;-58
2021/05/21 14:45:52;;;;;;;30.27;5.90;;;18.50;66.60;;;;;;10578999;28;20082;-56
2021/05/21 14:50:53;;;;;;;24.88;4.75;;;18.50;67.20;;;;;;10548057;28;20423;-56
2021/05/21 14:55:53;;;;;;;23.75;5.38;;;18.50;66.40;;;;;;10523654;28;20106;-57
2021/05/21 15:00:55;;;;;;;19.10;4.53;;;18.50;67.40;;;;;;10523499;28;20052;-56
2021/05/21 15:05:55;;;;;;;18.70;4.57;;;18.50;67.20;;;;;;10565879;28;20024;-56
2021/05/21 15:10:58;;;;;;;17.95;4.88;;;18.50;67.10;;;;;;10547262;28;20407;-55
2021/05/21 15:16:05;;;;;;;17.33;4.65;;;18.50;66.70;;;;;;10565768;28;20067;-55
2021/05/21 15:26:25;;;;;;;;;;;18.40;66.40;;;;;;10541182;28;20032;-56
2021/05/21 15:31:27;;;;;;;18.40;4.10;;;18.40;67.40;;;;;;10559204;28;19912;-57
2021/05/21 15:36:27;;;;;;;19.85;4.70;;;18.50;67.20;;;;;;10543120;28;20016;-56
2021/05/21 15:41:34;;;;;;;19.80;3.47;;;18.50;67.30;;;;;;10550704;28;20031;-57
2021/05/21 15:46:35;;;;;;;13.00;4.07;;;18.50;67.50;;;;;;10565154;28;20059;-55
2021/05/21 15:51:47;;;;;;;19.95;4.10;;;18.50;67.60;;;;;;10548516;28;20482;-55
2021/05/21 16:02:07;;;;;;;17.70;3.95;;;18.50;67.40;;;;;;10549251;28;20050;-55
2021/05/21 16:07:09;;;;;;;18.52;3.92;;;18.50;67.70;;;;;;10569030;28;20355;-51
2021/05/21 16:12:10;;;;;;;13.30;3.95;;;18.50;67.70;;;;;;10581064;28;20407;-56
2021/05/21 16:17:10;;;;;;;21.67;3.60;;;18.60;68.10;;;;;;10547280;28;20031;-56
2021/05/21 16:22:12;;;;;;;26.42;7.22;;;18.60;67.60;;;;;;10531953;28;20024;-61
2021/05/21 16:27:13;;;;;;;163.63;90.18;;;18.60;68.10;;;;;;10555976;28;20028;-57
2021/05/21 16:32:13;;;;;;;130.13;70.32;;;18.70;69.00;;;;;;10560586;28;20032;-56
2021/05/21 16:37:15;;;;;;;118.60;62.38;;;18.60;67.50;;;;;;10569802;28;20035;-57
2021/05/21 16:42:16;;;;;;;103.65;54.38;;;18.60;66.50;;;;;;10561169;28;20024;-56
2021/05/21 16:47:16;;;;;;;104.75;53.95;;;18.60;66.30;;;;;;10539277;28;20101;-55
2021/05/21 16:52:25;;;;;;;106.88;53.17;;;18.60;67.30;;;;;;10539160;28;20075;-57
2021/05/21 16:57:25;;;;;;;97.60;48.58;;;18.70;67.50;;;;;;10556027;28;20051;-57
2021/05/21 17:02:26;;;;;;;107.72;48.20;;;18.70;67.20;;;;;;10580148;28;20535;-58
2021/05/21 17:07:27;;;;;;;77.20;39.72;;;18.70;66.60;;;;;;10540461;28;20119;-57
2021/05/21 17:12:31;;;;;;;76.93;38.13;;;18.70;66.30;;;;;;10551932;28;20114;-57
2021/05/21 17:18:42;;;;;;;77.00;38.40;;;18.70;66.10;;;;;;10554570;28;20421;-57
2021/05/21 17:39:36;;;;;;;62.75;30.48;;;18.60;65.40;;;;;;10560078;28;20491;-56
2021/05/21 18:10:14;;;;;;;47.50;24.73;;;18.60;65.90;;;;;;10558471;28;20106;-58
2021/05/21 18:52:38;;;;;;;34.77;15.90;;;18.60;66.00;;;;;;10546877;28;20039;-57
2021/05/21 19:00:18;;;;;;;35.75;17.35;;;18.60;65.30;;;;;;10575574;28;20028;-58
2021/05/21 19:03:15;;;;;;;35.70;17.20;;;18.50;65.30;;;;;;10551972;28;20048;-57
2021/05/21 19:08:27;;;;;;;34.42;15.80;;;18.50;65.40;;;;;;10547191;28;20474;-57
2021/05/21 19:13:45;;;;;;;31.85;15.88;;;18.50;65.90;;;;;;10561536;28;20473;-56
2021/05/21 19:18:47;;;;;;;22.13;13.50;;;18.50;65.30;;;;;;10570020;28;20440;-56
2021/05/21 19:23:48;;;;;;;30.42;15.07;;;18.50;65.00;;;;;;10571157;28;20024;-58
2021/05/21 19:44:51;;;;;;;25.63;12.93;;;18.50;64.60;;;;;;10559153;28;20027;-59
2021/05/21 19:50:37;;;;;;;27.40;12.77;;;18.50;64.40;;;;;;10566877;28;20118;-56
2021/05/21 20:00:46;;;;;;;20.73;10.93;;;18.50;64.90;;;;;;10545777;28;20043;-57
2021/05/21 20:16:24;;;;;;;20.73;10.27;;;18.40;64.70;;;;;;10561968;28;20036;-55
2021/05/21 20:21:24;;;;;;;21.15;10.40;;;18.40;64.60;;;;;;10566626;28;20039;-56
2021/05/21 20:26:27;;;;;;;18.35;9.55;;;18.40;64.40;;;;;;10546189;28;20028;-56
2021/05/21 20:42:21;;;;;;;14.15;8.40;;;18.40;64.00;;;;;;10547708;28;20031;-56
2021/05/21 21:03:38;;;;;;;15.63;7.90;;;18.20;64.00;;;;;;10554774;28;20289;-56
2021/05/21 21:08:43;;;;;;;16.85;8.55;;;18.30;63.80;;;;;;10543081;28;20036;-55
2021/05/21 21:19:13;;;;;;;13.07;7.95;;;18.30;63.70;;;;;;10560361;28;20036;-55
2021/05/21 21:24:42;;;;;;;12.02;6.40;;;18.30;63.60;;;;;;10584297;28;20059;-55
2021/05/21 21:45:29;;;;;;;13.18;5.50;;;18.20;62.90;;;;;;10546392;28;20052;-55
2021/05/21 22:01:14;;;;;;;12.00;6.38;;;18.20;62.80;;;;;;10546293;28;20036;-56
2021/05/21 22:06:29;;;;;;;15.82;5.85;;;18.20;62.60;;;;;;10571073;28;20391;-55
2021/05/21 22:27:10;;;;;;;11.13;5.72;;;18.10;62.10;;;;;;10544741;28;20036;-56
2021/05/21 22:32:11;;;;;;;12.80;5.82;;;18.10;61.80;;;;;;10549806;28;20039;-56
2021/05/21 22:37:12;;;;;;;9.70;5.05;;;18.10;61.80;;;;;;10543136;28;20153;-56
2021/05/21 22:42:17;;;;;;;10.82;4.72;;;18.10;61.70;;;;;;10564978;28;20051;-58
2021/05/21 22:47:19;;;;;;;12.63;4.88;;;18.00;62.30;;;;;;10570563;28;20123;-59
2021/05/21 22:52:21;;;;;;;9.40;4.10;;;18.00;61.80;;;;;;10546858;28;20028;-59
2021/05/21 22:57:22;;;;;;;7.13;4.60;;;18.00;61.80;;;;;;10552757;28;20036;-59
2021/05/21 23:02:23;;;;;;;10.18;4.78;;;18.00;61.80;;;;;;10524838;28;20510;-59
2021/05/21 23:07:24;;;;;;;6.85;3.45;;;18.00;61.60;;;;;;10542608;28;20107;-59
2021/05/21 23:12:24;;;;;;;7.00;4.00;;;18.00;61.60;;;;;;10570169;28;20114;-59
2021/05/21 23:17:25;;;;;;;8.02;4.10;;;18.00;61.60;;;;;;10545488;28;20028;-58
2021/05/21 23:22:26;;;;;;;11.15;4.82;;;18.00;61.50;;;;;;10549284;28;20048;-59
2021/05/21 23:27:26;;;;;;;8.55;4.15;;;18.00;61.60;;;;;;10542192;28;20043;-58
2021/05/21 23:32:27;;;;;;;7.63;4.30;;;18.00;61.40;;;;;;10564267;28;20110;-61
2021/05/21 23:37:28;;;;;;;10.80;4.53;;;18.00;61.40;;;;;;10523658;28;20083;-59
2021/05/21 23:42:28;;;;;;;7.82;3.65;;;17.90;61.30;;;;;;10523414;28;20028;-59
2021/05/21 23:47:29;;;;;;;10.48;4.15;;;17.90;61.20;;;;;;10552904;28;20445;-59
2021/05/21 23:52:31;;;;;;;7.32;3.53;;;17.90;61.10;;;;;;10540819;28;20036;-58
2021/05/21 23:57:32;;;;;;;6.25;3.13;;;17.90;61.10;;;;;;10526345;28;20024;-59
